createdAt,value
2023-02-11T00:00:09.890Z,-1.10
2023-02-11T00:01:19.148Z,-1.10
2023-02-11T00:02:20.569Z,-1.10
2023-02-11T00:03:24.449Z,-1.10
2023-02-11T00:04:27.169Z,-1.10
2023-02-11T00:05:28.574Z,-1.10
2023-02-11T00:06:31.682Z,-1.20
2023-02-11T00:07:34.623Z,-1.20
2023-02-11T00:08:36.888Z,-1.20
2023-02-11T00:09:38.387Z,-1.20
2023-02-11T00:10:39.849Z,-1.10
2023-02-11T00:11:41.294Z,-1.10
2023-02-11T00:12:43.344Z,-1.20
2023-02-11T00:13:45.974Z,-1.10
2023-02-11T00:14:47.592Z,-1.10
2023-02-11T00:15:49.476Z,-1.10
2023-02-11T00:16:51.094Z,-1.10
2023-02-11T00:17:52.505Z,-1.20
2023-02-11T00:18:54.201Z,-1.20
2023-02-11T00:19:56.069Z,-1.20
2023-02-11T00:20:57.516Z,-1.20
2023-02-11T00:21:58.929Z,-1.20
2023-02-11T00:23:00.324Z,-1.20
2023-02-11T00:24:02.243Z,-1.20
2023-02-11T00:25:04.114Z,-1.20
2023-02-11T00:26:19.613Z,-1.20
2023-02-11T00:27:21.373Z,-1.20
2023-02-11T00:28:22.933Z,-1.30
2023-02-11T00:29:24.630Z,-1.20
2023-02-11T00:30:26.963Z,-1.20
2023-02-11T00:31:30.631Z,-1.20
2023-02-11T00:32:32.241Z,-1.20
2023-02-11T00:33:33.950Z,-1.30
2023-02-11T00:34:36.577Z,-1.30
2023-02-11T00:35:38.668Z,-1.30
2023-02-11T00:36:42.627Z,-1.30
2023-02-11T00:37:44.071Z,-1.30
2023-02-11T00:38:46.682Z,-1.30
2023-02-11T00:39:48.309Z,-1.30
2023-02-11T00:40:49.714Z,-1.30
2023-02-11T00:41:51.116Z,-1.20
2023-02-11T00:42:53.136Z,-1.20
2023-02-11T00:43:54.931Z,-1.20
2023-02-11T00:44:56.451Z,-1.30
2023-02-11T00:45:58.200Z,-1.30
2023-02-11T00:47:00.102Z,-1.30
2023-02-11T00:48:01.589Z,-1.30
2023-02-11T00:49:03.091Z,-1.30
2023-02-11T00:50:05.763Z,-1.30
2023-02-11T00:51:07.990Z,-1.40
2023-02-11T00:52:09.508Z,-1.40
2023-02-11T00:53:11.298Z,-1.30
2023-02-11T00:54:13.401Z,-1.30
2023-02-11T00:55:15.747Z,-1.30
2023-02-11T00:56:17.382Z,-1.30
2023-02-11T00:57:18.802Z,-1.30
2023-02-11T00:58:20.392Z,-1.30
2023-02-11T00:59:21.952Z,-1.30
2023-02-11T01:00:23.435Z,-1.30
2023-02-11T01:01:25.842Z,-1.30
2023-02-11T01:02:27.389Z,-1.40
2023-02-11T01:03:28.815Z,-1.30
2023-02-11T01:04:31.085Z,-1.30
2023-02-11T01:05:32.751Z,-1.30
2023-02-11T01:06:34.279Z,-1.30
2023-02-11T01:07:36.144Z,-1.30
2023-02-11T01:08:37.727Z,-1.30
2023-02-11T01:09:39.284Z,-1.40
2023-02-11T01:10:41.142Z,-1.30
2023-02-11T01:11:43.143Z,-1.40
2023-02-11T01:12:46.462Z,-1.40
2023-02-11T01:13:49.628Z,-1.40
2023-02-11T01:14:51.337Z,-1.30
2023-02-11T01:15:54.555Z,-1.40
2023-02-11T01:16:56.063Z,-1.40
2023-02-11T01:17:57.621Z,-1.30
2023-02-11T01:18:59.085Z,-1.40
2023-02-11T01:20:06.107Z,-1.50
2023-02-11T01:21:08.148Z,-1.50
2023-02-11T01:22:09.825Z,-1.40
2023-02-11T01:23:11.793Z,-1.40
2023-02-11T01:24:13.223Z,-1.40
2023-02-11T01:25:14.701Z,-1.50
2023-02-11T01:26:16.237Z,-1.50
2023-02-11T01:27:17.792Z,-1.50
2023-02-11T01:28:21.744Z,-1.50
2023-02-11T01:29:23.425Z,-1.50
2023-02-11T01:30:24.995Z,-1.50
2023-02-11T01:31:26.502Z,-1.50
2023-02-11T01:32:28.004Z,-1.50
2023-02-11T01:33:30.029Z,-1.60
2023-02-11T01:34:31.430Z,-1.60
2023-02-11T01:35:32.828Z,-1.60
2023-02-11T01:36:34.284Z,-1.60
2023-02-11T01:37:36.404Z,-1.60
2023-02-11T01:38:38.123Z,-1.60
2023-02-11T01:39:39.661Z,-1.60
2023-02-11T01:40:41.087Z,-1.70
2023-02-11T01:41:42.656Z,-1.70
2023-02-11T01:42:44.427Z,-1.70
2023-02-11T01:43:48.161Z,-1.60
2023-02-11T01:44:54.320Z,-1.60
2023-02-11T01:45:58.426Z,-1.60
2023-02-11T01:47:00.603Z,-1.50
2023-02-11T01:48:02.505Z,-1.60
2023-02-11T01:49:15.138Z,-1.60
2023-02-11T01:50:16.877Z,-1.60
2023-02-11T01:51:24.880Z,-1.50
2023-02-11T01:52:34.991Z,-1.50
2023-02-11T01:53:56.650Z,-1.50
2023-02-11T01:55:24.835Z,-1.50
2023-02-11T01:56:47.102Z,-1.60
2023-02-11T01:57:53.628Z,-1.60
2023-02-11T01:59:02.776Z,-1.70
2023-02-11T02:00:44.396Z,-1.70
2023-02-11T02:01:51.676Z,-1.70
2023-02-11T02:02:55.916Z,-1.70
2023-02-11T02:04:03.219Z,-1.80
2023-02-11T02:05:17.514Z,-1.80
2023-02-11T02:06:26.457Z,-1.80
2023-02-11T02:07:42.202Z,-1.80
2023-02-11T02:08:57.524Z,-1.70
2023-02-11T02:10:04.572Z,-1.60
2023-02-11T02:11:06.306Z,-1.60
2023-02-11T02:12:08.207Z,-1.60
2023-02-11T02:13:10.272Z,-1.60
2023-02-11T02:14:11.721Z,-1.60
2023-02-11T02:15:29.204Z,-1.70
2023-02-11T02:16:36.370Z,-1.70
2023-02-11T02:17:45.154Z,-1.70
2023-02-11T02:19:23.360Z,-1.70
2023-02-11T02:20:46.630Z,-1.70
2023-02-11T02:22:20.605Z,-1.60
2023-02-11T02:23:49.271Z,-1.70
2023-02-11T02:25:01.024Z,-1.70
2023-02-11T02:26:10.945Z,-1.70
2023-02-11T02:27:29.437Z,-1.80
2023-02-11T02:28:50.540Z,-1.80
2023-02-11T02:30:40.205Z,-1.80
2023-02-11T02:31:53.680Z,-1.80
2023-02-11T02:33:23.534Z,-1.80
2023-02-11T02:34:37.737Z,-1.80
2023-02-11T02:36:02.109Z,-1.80
2023-02-11T02:37:21.777Z,-1.80
2023-02-11T02:38:29.120Z,-1.70
2023-02-11T02:39:35.155Z,-1.70
2023-02-11T02:41:02.756Z,-1.80
2023-02-11T02:42:05.689Z,-1.80
2023-02-11T02:43:09.205Z,-1.80
2023-02-11T02:44:10.578Z,-1.80
2023-02-11T02:45:13.173Z,-1.80
2023-02-11T02:46:25.361Z,-1.80
2023-02-11T02:47:27.239Z,-1.70
2023-02-11T02:48:33.610Z,-1.70
2023-02-11T02:49:35.055Z,-1.70
2023-02-11T02:50:37.960Z,-1.60
2023-02-11T02:51:57.105Z,-1.70
2023-02-11T02:53:10.211Z,-1.70
2023-02-11T02:54:42.084Z,-1.70
2023-02-11T02:56:06.469Z,-1.80
2023-02-11T02:57:39.006Z,-1.70
2023-02-11T02:59:15.020Z,-1.70
2023-02-11T03:00:24.880Z,-1.70
2023-02-11T03:01:49.152Z,-1.80
2023-02-11T03:03:35.513Z,-1.80
2023-02-11T03:05:11.695Z,-1.80
2023-02-11T03:06:34.239Z,-1.80
2023-02-11T03:07:48.578Z,-1.80
2023-02-11T03:09:12.750Z,-1.80
2023-02-11T03:10:28.886Z,-1.80
2023-02-11T03:11:30.276Z,-1.80
2023-02-11T03:12:34.633Z,-1.80
2023-02-11T03:13:37.993Z,-1.80
2023-02-11T03:14:40.771Z,-1.90
2023-02-11T03:15:45.352Z,-1.90
2023-02-11T03:16:49.417Z,-1.80
2023-02-11T03:17:54.193Z,-1.80
2023-02-11T03:19:19.769Z,-1.90
2023-02-11T03:20:23.024Z,-1.90
2023-02-11T03:21:25.641Z,-1.90
2023-02-11T03:22:34.984Z,-1.90
2023-02-11T03:23:47.321Z,-1.90
2023-02-11T03:24:49.889Z,-1.80
2023-02-11T03:25:58.596Z,-1.80
2023-02-11T03:27:28.820Z,-1.80
2023-02-11T03:28:41.475Z,-1.80
2023-02-11T03:29:56.640Z,-1.80
2023-02-11T03:31:16.085Z,-1.80
2023-02-11T03:32:25.960Z,-1.80
2023-02-11T03:33:45.549Z,-1.70
2023-02-11T03:34:55.547Z,-1.70
2023-02-11T03:36:04.864Z,-1.70
2023-02-11T03:37:13.884Z,-1.60
2023-02-11T03:38:23.607Z,-1.70
2023-02-11T03:39:30.625Z,-1.70
2023-02-11T03:40:36.772Z,-1.70
2023-02-11T03:41:39.758Z,-1.80
2023-02-11T03:42:50.975Z,-1.70
2023-02-11T03:43:58.194Z,-1.70
2023-02-11T03:45:09.417Z,-1.80
2023-02-11T03:46:13.499Z,-1.80
2023-02-11T03:47:16.953Z,-1.80
2023-02-11T03:48:30.812Z,-1.80
2023-02-11T03:49:33.495Z,-1.80
2023-02-11T03:50:37.400Z,-1.80
2023-02-11T03:51:40.356Z,-1.80
2023-02-11T03:52:42.334Z,-1.80
2023-02-11T03:53:46.530Z,-1.80
2023-02-11T03:54:51.163Z,-1.80
2023-02-11T03:55:56.722Z,-1.80
2023-02-11T03:57:00.715Z,-1.80
2023-02-11T03:58:02.092Z,-1.80
2023-02-11T03:59:03.756Z,-1.80
2023-02-11T04:00:06.402Z,-1.80
2023-02-11T04:01:13.249Z,-1.80
2023-02-11T04:02:14.670Z,-1.80
2023-02-11T04:03:16.231Z,-1.80
2023-02-11T04:04:17.783Z,-1.80
2023-02-11T04:05:19.301Z,-1.80
2023-02-11T04:06:20.886Z,-1.80
2023-02-11T04:07:22.514Z,-1.80
2023-02-11T04:08:23.969Z,-1.80
2023-02-11T04:09:25.670Z,-1.80
2023-02-11T04:10:27.123Z,-1.70
2023-02-11T04:11:28.582Z,-1.80
2023-02-11T04:12:30.285Z,-1.80
2023-02-11T04:13:31.637Z,-1.70
2023-02-11T04:14:33.095Z,-1.70
2023-02-11T04:15:34.468Z,-1.70
2023-02-11T04:16:35.925Z,-1.70
2023-02-11T04:17:38.066Z,-1.70
2023-02-11T04:18:39.433Z,-1.70
2023-02-11T04:19:41.107Z,-1.70
2023-02-11T04:20:42.795Z,-1.70
2023-02-11T04:21:44.432Z,-1.70
2023-02-11T04:22:45.947Z,-1.70
2023-02-11T04:23:47.324Z,-1.70
2023-02-11T04:24:48.782Z,-1.70
2023-02-11T04:25:51.313Z,-1.70
2023-02-11T04:26:53.054Z,-1.70
2023-02-11T04:27:54.461Z,-1.70
2023-02-11T04:28:55.846Z,-1.80
2023-02-11T04:29:57.231Z,-1.80
2023-02-11T04:30:58.941Z,-1.80
2023-02-11T04:32:00.450Z,-1.80
2023-02-11T04:33:02.060Z,-1.80
2023-02-11T04:34:03.483Z,-1.80
2023-02-11T04:35:05.695Z,-1.80
2023-02-11T04:36:07.583Z,-1.80
2023-02-11T04:37:09.014Z,-1.80
2023-02-11T04:38:10.444Z,-1.80
2023-02-11T04:39:11.868Z,-1.70
2023-02-11T04:40:13.349Z,-1.80
2023-02-11T04:41:14.872Z,-1.80
2023-02-11T04:42:16.218Z,-1.80
2023-02-11T04:43:17.655Z,-1.80
2023-02-11T04:44:19.375Z,-1.90
2023-02-11T04:45:20.844Z,-1.90
2023-02-11T04:46:22.385Z,-1.80
2023-02-11T04:47:23.803Z,-1.80
2023-02-11T04:48:25.948Z,-1.80
2023-02-11T04:49:27.387Z,-1.80
2023-02-11T04:50:29.162Z,-1.80
2023-02-11T04:51:30.603Z,-1.70
2023-02-11T04:52:32.000Z,-1.70
2023-02-11T04:53:33.383Z,-1.60
2023-02-11T04:54:34.962Z,-1.70
2023-02-11T04:55:36.933Z,-1.70
2023-02-11T04:56:38.613Z,-1.80
2023-02-11T04:57:40.003Z,-1.80
2023-02-11T04:58:41.827Z,-1.80
2023-02-11T04:59:43.215Z,-1.80
2023-02-11T05:00:45.048Z,-1.80
2023-02-11T05:01:46.475Z,-1.90
2023-02-11T05:02:47.908Z,-1.80
2023-02-11T05:03:49.757Z,-1.80
2023-02-11T05:04:51.179Z,-1.80
2023-02-11T05:05:52.934Z,-1.80
2023-02-11T05:06:56.051Z,-1.80
2023-02-11T05:07:59.053Z,-1.80
2023-02-11T05:09:00.465Z,-1.70
2023-02-11T05:10:01.949Z,-1.70
2023-02-11T05:11:03.486Z,-1.80
2023-02-11T05:12:05.214Z,-1.80
2023-02-11T05:13:06.633Z,-1.80
2023-02-11T05:14:08.379Z,-1.70
2023-02-11T05:15:09.871Z,-1.80
2023-02-11T05:16:11.466Z,-1.80
2023-02-11T05:17:12.938Z,-1.70
2023-02-11T05:18:17.281Z,-1.70
2023-02-11T05:19:18.700Z,-1.80
2023-02-11T05:20:20.588Z,-1.80
2023-02-11T05:21:22.048Z,-1.80
2023-02-11T05:22:23.459Z,-1.80
2023-02-11T05:23:24.810Z,-1.80
2023-02-11T05:24:26.384Z,-1.70
2023-02-11T05:25:27.930Z,-1.70
2023-02-11T05:26:29.379Z,-1.80
2023-02-11T05:27:30.976Z,-1.80
2023-02-11T05:28:33.241Z,-1.80
2023-02-11T05:29:34.660Z,-1.70
2023-02-11T05:30:36.117Z,-1.60
2023-02-11T05:31:37.576Z,-1.70
2023-02-11T05:32:39.010Z,-1.80
2023-02-11T05:33:41.515Z,-1.70
2023-02-11T05:34:42.958Z,-1.70
2023-02-11T05:35:44.383Z,-1.60
2023-02-11T05:36:45.891Z,-1.70
2023-02-11T05:37:47.274Z,-1.70
2023-02-11T05:38:48.900Z,-1.70
2023-02-11T05:39:50.321Z,-1.80
2023-02-11T05:40:51.771Z,-1.80
2023-02-11T05:41:53.242Z,-1.80
2023-02-11T05:42:54.666Z,-1.80
2023-02-11T05:43:56.065Z,-1.70
2023-02-11T05:44:57.686Z,-1.70
2023-02-11T05:45:59.184Z,-1.70
2023-02-11T05:47:00.933Z,-1.70
2023-02-11T05:48:02.353Z,-1.60
2023-02-11T05:49:04.349Z,-1.60
2023-02-11T05:50:06.256Z,-1.60
2023-02-11T05:51:07.684Z,-1.60
2023-02-11T05:52:09.121Z,-1.50
2023-02-11T05:53:11.186Z,-1.60
2023-02-11T05:54:12.906Z,-1.60
2023-02-11T05:55:14.316Z,-1.60
2023-02-11T05:56:15.706Z,-1.70
2023-02-11T05:57:17.766Z,-1.70
2023-02-11T05:58:19.182Z,-1.70
2023-02-11T05:59:20.795Z,-1.70
2023-02-11T06:00:22.646Z,-1.70
2023-02-11T06:01:24.026Z,-1.70
2023-02-11T06:02:25.796Z,-1.60
2023-02-11T06:03:27.769Z,-1.60
2023-02-11T06:04:29.409Z,-1.60
2023-02-11T06:05:31.222Z,-1.60
2023-02-11T06:06:32.572Z,-1.60
2023-02-11T06:07:34.192Z,-1.60
2023-02-11T06:08:37.577Z,-1.70
2023-02-11T06:09:40.663Z,-1.70
2023-02-11T06:10:45.371Z,-1.70
2023-02-11T06:11:46.786Z,-1.70
2023-02-11T06:12:48.281Z,-1.70
2023-02-11T06:13:49.980Z,-1.70
2023-02-11T06:14:51.335Z,-1.60
2023-02-11T06:15:57.319Z,-1.60
2023-02-11T06:16:58.846Z,-1.70
2023-02-11T06:18:00.519Z,-1.70
2023-02-11T06:19:02.035Z,-1.70
2023-02-11T06:20:06.564Z,-1.70
2023-02-11T06:21:09.520Z,-1.60
2023-02-11T06:22:11.344Z,-1.70
2023-02-11T06:23:12.719Z,-1.60
2023-02-11T06:24:14.386Z,-1.60
2023-02-11T06:25:16.038Z,-1.60
2023-02-11T06:26:20.346Z,-1.60
2023-02-11T06:27:21.843Z,-1.60
2023-02-11T06:28:23.452Z,-1.70
2023-02-11T06:29:24.990Z,-1.60
2023-02-11T06:30:26.450Z,-1.70
2023-02-11T06:31:28.793Z,-1.60
2023-02-11T06:32:43.491Z,-1.60
2023-02-11T06:33:45.686Z,-1.60
2023-02-11T06:34:47.175Z,-1.60
2023-02-11T06:35:48.831Z,-1.60
2023-02-11T06:36:50.480Z,-1.60
2023-02-11T06:37:53.874Z,-1.60
2023-02-11T06:38:55.617Z,-1.50
2023-02-11T06:39:57.080Z,-1.50
2023-02-11T06:40:58.808Z,-1.60
2023-02-11T06:42:00.218Z,-1.50
2023-02-11T06:43:01.667Z,-1.50
2023-02-11T06:44:03.153Z,-1.50
2023-02-11T06:45:09.402Z,-1.50
2023-02-11T06:46:10.866Z,-1.50
2023-02-11T06:47:12.243Z,-1.50
2023-02-11T06:48:13.633Z,-1.50
2023-02-11T06:49:15.632Z,-1.50
2023-02-11T06:50:17.113Z,-1.60
2023-02-11T06:51:18.607Z,-1.60
2023-02-11T06:52:20.047Z,-1.60
2023-02-11T06:53:21.543Z,-1.60
2023-02-11T06:54:23.279Z,-1.60
2023-02-11T06:55:25.292Z,-1.60
2023-02-11T06:56:30.331Z,-1.60
2023-02-11T06:57:32.518Z,-1.70
2023-02-11T06:58:34.520Z,-1.60
2023-02-11T06:59:35.892Z,-1.60
2023-02-11T07:00:37.532Z,-1.60
2023-02-11T07:01:39.303Z,-1.60
2023-02-11T07:02:40.773Z,-1.60
2023-02-11T07:03:44.747Z,-1.60
2023-02-11T07:04:46.283Z,-1.60
2023-02-11T07:05:47.781Z,-1.60
2023-02-11T07:06:49.166Z,-1.50
2023-02-11T07:07:50.632Z,-1.50
2023-02-11T07:08:52.069Z,-1.60
2023-02-11T07:09:54.025Z,-1.60
2023-02-11T07:10:55.500Z,-1.60
2023-02-11T07:11:56.929Z,-1.50
2023-02-11T07:12:58.882Z,-1.50
2023-02-11T07:14:04.616Z,-1.50
2023-02-11T07:15:06.792Z,-1.50
2023-02-11T07:16:10.965Z,-1.50
2023-02-11T07:17:12.386Z,-1.40
2023-02-11T07:18:14.742Z,-1.50
2023-02-11T07:19:16.477Z,-1.50
2023-02-11T07:20:17.961Z,-1.50
2023-02-11T07:21:21.660Z,-1.50
2023-02-11T07:22:23.209Z,-1.50
2023-02-11T07:23:24.582Z,-1.50
2023-02-11T07:24:26.053Z,-1.40
2023-02-11T07:25:27.748Z,-1.40
2023-02-11T07:26:29.233Z,-1.30
2023-02-11T07:27:30.738Z,-1.30
2023-02-11T07:28:33.924Z,-1.20
2023-02-11T07:29:35.321Z,-1.10
2023-02-11T07:30:36.943Z,-1.10
2023-02-11T07:31:38.680Z,-1.00
2023-02-11T07:32:40.159Z,-1.00
2023-02-11T07:33:42.101Z,-0.90
2023-02-11T07:34:44.198Z,-0.90
2023-02-11T07:35:45.642Z,-0.90
2023-02-11T07:36:49.503Z,-0.70
2023-02-11T07:37:50.976Z,-0.70
2023-02-11T07:38:52.729Z,-0.70
2023-02-11T07:39:54.252Z,-0.70
2023-02-11T07:40:59.444Z,-0.70
2023-02-11T07:42:00.932Z,-0.70
2023-02-11T07:43:03.020Z,-0.70
2023-02-11T07:44:04.710Z,-0.70
2023-02-11T07:45:06.889Z,-0.60
2023-02-11T07:46:20.274Z,-0.60
2023-02-11T07:47:21.905Z,-0.60
2023-02-11T07:48:23.414Z,-0.60
2023-02-11T07:49:25.189Z,-0.50
2023-02-11T07:50:26.648Z,-0.50
2023-02-11T07:51:30.440Z,-0.50
2023-02-11T07:52:32.216Z,-0.50
2023-02-11T07:53:33.777Z,-0.50
2023-02-11T07:54:35.708Z,-0.50
2023-02-11T07:55:37.102Z,-0.50
2023-02-11T07:56:38.600Z,-0.50
2023-02-11T07:57:41.226Z,-0.40
2023-02-11T07:58:43.273Z,-0.40
2023-02-11T07:59:45.109Z,-0.30
2023-02-11T08:00:46.569Z,-0.20
2023-02-11T08:01:48.135Z,-0.20
2023-02-11T08:02:49.710Z,-0.20
2023-02-11T08:03:52.630Z,-0.10
2023-02-11T08:04:54.068Z,-0.20
2023-02-11T08:05:55.782Z,-0.20
2023-02-11T08:06:59.293Z,-0.10
2023-02-11T08:08:01.043Z,0.00
2023-02-11T08:09:07.267Z,0.10
2023-02-11T08:10:08.916Z,0.20
2023-02-11T08:11:13.449Z,0.30
2023-02-11T08:12:14.809Z,0.40
2023-02-11T08:13:16.217Z,0.40
2023-02-11T08:14:17.712Z,0.50
2023-02-11T08:15:19.050Z,0.50
2023-02-11T08:16:33.098Z,0.60
2023-02-11T08:17:36.389Z,0.70
2023-02-11T08:18:37.760Z,0.70
2023-02-11T08:19:39.655Z,0.80
2023-02-11T08:20:41.070Z,0.80
2023-02-11T08:21:42.843Z,0.90
2023-02-11T08:22:44.238Z,0.90
2023-02-11T08:23:45.993Z,1.10
2023-02-11T08:24:47.457Z,1.10
2023-02-11T08:25:48.992Z,1.10
2023-02-11T08:26:50.435Z,1.10
2023-02-11T08:27:51.899Z,1.20
2023-02-11T08:28:55.123Z,1.20
2023-02-11T08:29:57.026Z,1.30
2023-02-11T08:30:58.408Z,1.30
2023-02-11T08:31:59.984Z,1.40
2023-02-11T08:33:01.646Z,1.40
2023-02-11T08:34:03.742Z,1.50
2023-02-11T08:35:07.870Z,1.50
2023-02-11T08:36:14.986Z,1.60
2023-02-11T08:37:16.382Z,1.70
2023-02-11T08:38:17.807Z,1.70
2023-02-11T08:39:21.355Z,1.80
2023-02-11T08:40:22.832Z,1.80
2023-02-11T08:41:24.675Z,1.90
2023-02-11T08:42:26.275Z,1.90
2023-02-11T08:43:27.730Z,2.00
2023-02-11T08:44:30.290Z,2.00
2023-02-11T08:45:32.363Z,2.10
2023-02-11T08:46:34.035Z,2.10
2023-02-11T08:47:36.841Z,2.20
2023-02-11T08:48:38.937Z,2.20
2023-02-11T08:49:42.463Z,2.20
2023-02-11T08:50:44.297Z,2.20
2023-02-11T08:51:46.696Z,2.20
2023-02-11T08:52:48.299Z,2.00
2023-02-11T08:53:51.369Z,2.00
2023-02-11T08:54:52.782Z,2.00
2023-02-11T08:55:55.513Z,2.10
2023-02-11T08:56:57.296Z,2.20
2023-02-11T08:57:58.751Z,2.20
2023-02-11T08:59:00.202Z,2.20
2023-02-11T09:00:02.123Z,2.10
2023-02-11T09:01:14.051Z,1.90
2023-02-11T09:02:15.792Z,1.90
2023-02-11T09:03:17.888Z,1.90
2023-02-11T09:04:19.800Z,2.00
2023-02-11T09:05:23.004Z,1.90
2023-02-11T09:06:25.696Z,2.00
2023-02-11T09:07:28.655Z,2.00
2023-02-11T09:08:30.094Z,2.00
2023-02-11T09:09:31.507Z,2.10
2023-02-11T09:10:34.496Z,2.20
2023-02-11T09:11:37.224Z,2.30
2023-02-11T09:12:38.678Z,2.30
2023-02-11T09:13:42.065Z,2.30
2023-02-11T09:14:43.665Z,2.30
2023-02-11T09:15:47.657Z,2.30
2023-02-11T09:16:50.601Z,2.30
2023-02-11T09:17:52.239Z,2.40
2023-02-11T09:18:54.483Z,2.40
2023-02-11T09:19:55.910Z,2.40
2023-02-11T09:21:05.001Z,2.40
2023-02-11T09:22:06.597Z,2.40
2023-02-11T09:23:08.059Z,2.40
2023-02-11T09:24:10.193Z,2.40
2023-02-11T09:25:11.692Z,2.40
2023-02-11T09:26:19.959Z,2.40
2023-02-11T09:27:21.540Z,2.50
2023-02-11T09:28:22.984Z,2.60
2023-02-11T09:29:24.808Z,2.60
2023-02-11T09:30:27.628Z,2.70
2023-02-11T09:31:31.101Z,2.70
2023-02-11T09:32:32.825Z,2.80
2023-02-11T09:33:34.639Z,2.80
2023-02-11T09:34:36.928Z,2.90
2023-02-11T09:35:38.667Z,2.90
2023-02-11T09:36:41.142Z,2.90
2023-02-11T09:37:42.724Z,2.90
2023-02-11T09:38:44.857Z,2.90
2023-02-11T09:39:46.665Z,2.90
2023-02-11T09:40:48.419Z,2.90
2023-02-11T09:41:59.573Z,2.90
2023-02-11T09:43:22.064Z,2.90
2023-02-11T09:44:27.229Z,2.90
2023-02-11T09:45:31.265Z,3.00
2023-02-11T09:46:38.525Z,3.00
2023-02-11T09:47:50.937Z,3.00
2023-02-11T09:48:54.534Z,3.10
2023-02-11T09:50:16.252Z,3.10
2023-02-11T09:51:40.498Z,3.10
2023-02-11T09:52:47.322Z,3.10
2023-02-11T09:53:54.566Z,3.10
2023-02-11T09:54:59.003Z,3.10
2023-02-11T09:56:03.043Z,3.10
2023-02-11T09:57:22.972Z,3.10
2023-02-11T09:58:39.044Z,3.10
2023-02-11T09:59:40.669Z,3.20
2023-02-11T10:01:00.208Z,3.30
2023-02-11T10:02:11.494Z,3.20
2023-02-11T10:03:37.843Z,3.20
2023-02-11T10:05:17.387Z,3.30
2023-02-11T10:06:28.619Z,3.30
2023-02-11T10:07:48.466Z,3.40
2023-02-11T10:09:15.132Z,3.50
2023-02-11T10:10:30.442Z,3.60
2023-02-11T10:12:09.578Z,3.70
2023-02-11T10:13:42.573Z,3.70
2023-02-11T10:15:02.500Z,3.70
2023-02-11T10:16:10.030Z,3.80
2023-02-11T10:17:30.540Z,3.90
2023-02-11T10:19:05.383Z,3.90
2023-02-11T10:20:34.180Z,3.90
2023-02-11T10:21:54.533Z,4.00
2023-02-11T10:23:01.329Z,4.00
2023-02-11T10:24:10.060Z,4.10
2023-02-11T10:25:24.991Z,4.10
2023-02-11T10:26:30.966Z,4.10
2023-02-11T10:27:35.651Z,4.20
2023-02-11T10:28:39.488Z,4.20
2023-02-11T10:29:46.313Z,4.20
2023-02-11T10:31:20.357Z,4.40
2023-02-11T10:32:48.604Z,4.30
2023-02-11T10:34:01.928Z,4.30
2023-02-11T10:35:15.389Z,4.30
2023-02-11T10:36:18.674Z,4.30
2023-02-11T10:37:20.177Z,4.30
2023-02-11T10:38:21.656Z,4.30
2023-02-11T10:39:25.845Z,4.30
2023-02-11T10:40:30.007Z,4.30
2023-02-11T10:41:36.859Z,4.40
2023-02-11T10:42:39.696Z,4.40
2023-02-11T10:43:42.820Z,4.40
2023-02-11T10:45:05.131Z,4.40
2023-02-11T10:46:07.039Z,4.50
2023-02-11T10:47:28.742Z,4.50
2023-02-11T10:48:39.627Z,4.60
2023-02-11T10:49:47.975Z,4.60
2023-02-11T10:50:49.802Z,4.70
2023-02-11T10:52:11.208Z,4.70
2023-02-11T10:53:20.998Z,4.80
2023-02-11T10:54:24.377Z,4.80
2023-02-11T10:55:28.690Z,4.80
2023-02-11T10:56:34.486Z,4.80
2023-02-11T10:57:38.840Z,4.90
2023-02-11T10:59:14.545Z,4.90
2023-02-11T11:00:22.009Z,5.00
2023-02-11T11:01:25.129Z,5.00
2023-02-11T11:02:34.674Z,5.00
2023-02-11T11:03:46.681Z,5.10
2023-02-11T11:04:48.599Z,5.20
2023-02-11T11:05:58.211Z,5.20
2023-02-11T11:07:30.394Z,5.30
2023-02-11T11:08:46.556Z,5.30
2023-02-11T11:10:25.626Z,5.30
2023-02-11T11:11:27.440Z,5.40
2023-02-11T11:12:33.785Z,5.40
2023-02-11T11:13:55.301Z,5.50
2023-02-11T11:15:02.764Z,5.50
2023-02-11T11:16:14.725Z,5.50
2023-02-11T11:17:19.495Z,5.60
2023-02-11T11:18:23.296Z,5.60
2023-02-11T11:19:26.005Z,5.70
2023-02-11T11:20:35.251Z,5.70
2023-02-11T11:21:45.697Z,5.70
2023-02-11T11:22:49.350Z,5.80
2023-02-11T11:24:03.323Z,5.70
2023-02-11T11:25:05.201Z,5.70
2023-02-11T11:26:16.441Z,5.70
2023-02-11T11:27:21.851Z,5.70
2023-02-11T11:28:26.281Z,5.80
2023-02-11T11:29:50.179Z,5.90
2023-02-11T11:30:54.906Z,5.90
2023-02-11T11:32:01.519Z,5.90
2023-02-11T11:33:03.162Z,5.90
2023-02-11T11:34:27.353Z,5.90
2023-02-11T11:35:32.893Z,5.90
2023-02-11T11:36:38.062Z,5.90
2023-02-11T11:37:39.541Z,5.90
2023-02-11T11:38:50.201Z,6.00
2023-02-11T11:40:17.748Z,6.10
2023-02-11T11:41:24.379Z,6.10
2023-02-11T11:42:33.966Z,6.00
2023-02-11T11:43:37.641Z,6.00
2023-02-11T11:44:40.022Z,6.00
2023-02-11T11:45:56.725Z,6.00
2023-02-11T11:47:15.821Z,6.00
2023-02-11T11:48:26.326Z,6.00
2023-02-11T11:49:35.905Z,6.10
2023-02-11T11:50:44.125Z,6.00
2023-02-11T11:51:54.520Z,6.00
2023-02-11T11:53:10.985Z,6.00
2023-02-11T11:54:15.370Z,6.00
2023-02-11T11:55:29.279Z,6.10
2023-02-11T11:56:36.077Z,6.10
2023-02-11T11:57:38.857Z,6.20
2023-02-11T11:58:40.528Z,6.30
2023-02-11T11:59:42.279Z,6.30
2023-02-11T12:00:43.723Z,6.30
2023-02-11T12:01:50.965Z,6.40
2023-02-11T12:02:58.617Z,6.50
2023-02-11T12:04:08.989Z,6.50
2023-02-11T12:05:22.509Z,6.60
2023-02-11T12:06:48.786Z,6.60
2023-02-11T12:08:11.531Z,6.60
2023-02-11T12:09:22.870Z,6.60
2023-02-11T12:10:27.483Z,6.60
2023-02-11T12:12:08.056Z,6.60
2023-02-11T12:13:18.459Z,6.60
2023-02-11T12:14:31.926Z,6.70
2023-02-11T12:15:41.734Z,6.70
2023-02-11T12:16:56.221Z,6.80
2023-02-11T12:18:21.974Z,6.80
2023-02-11T12:19:56.414Z,6.90
2023-02-11T12:21:27.546Z,6.90
2023-02-11T12:22:55.598Z,6.90
2023-02-11T12:24:29.127Z,6.90
2023-02-11T12:26:04.341Z,7.00
2023-02-11T12:27:16.299Z,7.00
2023-02-11T12:28:25.874Z,7.10
2023-02-11T12:30:01.612Z,7.10
2023-02-11T12:31:12.094Z,7.30
2023-02-11T12:32:49.079Z,7.30
2023-02-11T12:34:06.132Z,7.30
2023-02-11T12:35:38.524Z,7.30
2023-02-11T12:37:07.739Z,7.30
2023-02-11T12:38:27.262Z,7.30
2023-02-11T12:39:59.347Z,7.40
2023-02-11T12:42:16.898Z,7.40
2023-02-11T12:43:23.380Z,7.40
2023-02-11T12:44:36.430Z,7.40
2023-02-11T12:45:55.479Z,7.50
2023-02-11T12:47:09.708Z,7.50
2023-02-11T12:48:58.304Z,7.50
2023-02-11T12:50:20.593Z,7.50
2023-02-11T12:51:27.934Z,7.60
2023-02-11T12:52:53.099Z,7.50
2023-02-11T12:54:06.790Z,7.60
2023-02-11T12:55:19.268Z,7.60
2023-02-11T12:56:39.721Z,7.70
2023-02-11T12:57:44.809Z,7.70
2023-02-11T12:58:50.958Z,7.70
2023-02-11T13:00:08.548Z,7.70
2023-02-11T13:01:34.621Z,7.70
2023-02-11T13:03:07.449Z,7.70
2023-02-11T13:04:28.686Z,7.70
2023-02-11T13:06:02.617Z,7.70
2023-02-11T13:07:12.676Z,7.80
2023-02-11T13:08:35.331Z,7.80
2023-02-11T13:09:43.805Z,7.80
2023-02-11T13:10:53.971Z,7.80
2023-02-11T13:11:58.649Z,7.80
2023-02-11T13:13:17.393Z,7.80
2023-02-11T13:14:35.285Z,7.90
2023-02-11T13:15:37.075Z,7.90
2023-02-11T13:16:48.726Z,7.90
2023-02-11T13:17:59.181Z,7.90
2023-02-11T13:19:13.205Z,7.90
2023-02-11T13:20:31.167Z,7.90
2023-02-11T13:21:49.953Z,7.90
2023-02-11T13:23:02.857Z,8.00
2023-02-11T13:24:14.214Z,8.00
2023-02-11T13:25:42.980Z,8.00
2023-02-11T13:27:13.863Z,8.10
2023-02-11T13:28:40.693Z,8.10
2023-02-11T13:29:50.908Z,8.10
2023-02-11T13:31:02.165Z,8.10
2023-02-11T13:32:12.352Z,8.10
2023-02-11T13:33:16.703Z,8.10
2023-02-11T13:34:26.902Z,8.10
2023-02-11T13:35:36.796Z,8.10
2023-02-11T13:36:38.257Z,8.10
2023-02-11T13:37:39.971Z,8.10
2023-02-11T13:38:50.913Z,8.10
2023-02-11T13:40:22.850Z,8.10
2023-02-11T13:41:30.730Z,8.20
2023-02-11T13:42:45.779Z,8.10
2023-02-11T13:44:02.975Z,8.10
2023-02-11T13:45:18.414Z,8.10
2023-02-11T13:46:20.134Z,8.20
2023-02-11T13:47:36.966Z,8.20
2023-02-11T13:48:45.411Z,8.20
2023-02-11T13:49:54.583Z,8.20
2023-02-11T13:51:02.740Z,8.20
2023-02-11T13:52:15.634Z,8.30
2023-02-11T13:53:18.272Z,8.30
2023-02-11T13:54:30.534Z,8.40
2023-02-11T13:55:32.725Z,8.40
2023-02-11T13:56:39.716Z,8.40
2023-02-11T13:57:42.036Z,8.40
2023-02-11T13:58:51.210Z,8.40
2023-02-11T13:59:55.648Z,8.50
2023-02-11T14:00:58.538Z,8.50
2023-02-11T14:02:18.791Z,8.50
2023-02-11T14:03:42.535Z,8.50
2023-02-11T14:05:23.524Z,8.50
2023-02-11T14:06:47.413Z,8.50
2023-02-11T14:08:27.722Z,8.50
2023-02-11T14:09:40.149Z,8.40
2023-02-11T14:10:41.639Z,8.30
2023-02-11T14:12:14.652Z,8.20
2023-02-11T14:13:21.755Z,8.10
2023-02-11T14:14:33.451Z,8.00
2023-02-11T14:15:41.318Z,7.90
2023-02-11T14:17:11.631Z,7.80
2023-02-11T14:18:37.061Z,7.70
2023-02-11T14:19:40.045Z,7.50
2023-02-11T14:20:44.590Z,7.40
2023-02-11T14:21:47.080Z,7.30
2023-02-11T14:22:50.990Z,7.20
2023-02-11T14:23:53.805Z,7.10
2023-02-11T14:24:56.857Z,6.90
2023-02-11T14:26:34.807Z,6.80
2023-02-11T14:27:57.221Z,6.80
2023-02-11T14:29:01.865Z,6.70
2023-02-11T14:30:15.221Z,6.70
2023-02-11T14:31:29.867Z,6.60
2023-02-11T14:32:40.593Z,6.50
2023-02-11T14:34:12.068Z,6.40
2023-02-11T14:35:45.404Z,6.30
2023-02-11T14:37:03.390Z,6.20
2023-02-11T14:38:45.798Z,6.10
2023-02-11T14:40:16.866Z,6.00